createdAt,value
2018-07-19T00:00:58.269Z,0
2018-07-19T00:02:14.196Z,0
2018-07-19T00:03:30.146Z,0
2018-07-19T00:04:46.018Z,0
2018-07-19T00:06:01.916Z,0
2018-07-19T00:07:17.874Z,0
2018-07-19T00:08:33.774Z,0
2018-07-19T00:09:49.664Z,0
2018-07-19T00:11:05.553Z,0
2018-07-19T00:12:21.484Z,0
2018-07-19T00:13:37.374Z,0
2018-07-19T00:14:53.270Z,0
2018-07-19T00:16:09.182Z,0
2018-07-19T00:17:25.097Z,0
2018-07-19T00:18:41.015Z,0
2018-07-19T00:19:56.903Z,0
2018-07-19T00:21:12.785Z,0
2018-07-19T00:22:28.745Z,0
2018-07-19T00:23:44.729Z,0
2018-07-19T00:25:00.653Z,0
2018-07-19T00:26:16.568Z,0
2018-07-19T00:27:33.502Z,0
2018-07-19T00:28:49.360Z,0
2018-07-19T00:30:05.261Z,0
2018-07-19T00:31:21.246Z,0
2018-07-19T00:32:37.113Z,0
2018-07-19T00:33:53.020Z,0
2018-07-19T00:35:08.853Z,0
2018-07-19T00:36:24.716Z,0
2018-07-19T00:37:40.650Z,0
2018-07-19T00:38:56.564Z,0
2018-07-19T00:40:12.435Z,0
2018-07-19T00:41:28.385Z,0
2018-07-19T00:42:44.387Z,0
2018-07-19T00:44:00.333Z,0
2018-07-19T00:45:16.241Z,0
2018-07-19T00:46:32.148Z,0
2018-07-19T00:47:48.074Z,0
2018-07-19T00:49:03.960Z,0
2018-07-19T00:50:19.844Z,0
2018-07-19T00:51:35.747Z,0
2018-07-19T00:52:51.669Z,0
2018-07-19T00:54:07.622Z,0
2018-07-19T00:55:23.559Z,0
2018-07-19T00:56:39.480Z,0
2018-07-19T00:57:55.367Z,0
2018-07-19T00:59:11.308Z,0
2018-07-19T01:00:27.187Z,0
2018-07-19T01:01:43.055Z,0
2018-07-19T01:02:58.960Z,0
2018-07-19T01:04:14.862Z,0
2018-07-19T01:05:30.752Z,0
2018-07-19T01:06:46.650Z,0
2018-07-19T01:08:02.541Z,0
2018-07-19T01:09:18.538Z,0
2018-07-19T01:10:34.487Z,0
2018-07-19T01:11:50.473Z,0
2018-07-19T01:13:06.332Z,0
2018-07-19T01:14:22.220Z,0
2018-07-19T01:15:38.116Z,0
2018-07-19T01:16:55.044Z,0
2018-07-19T01:18:11.013Z,0
2018-07-19T01:19:26.902Z,0
2018-07-19T01:20:42.872Z,0
2018-07-19T01:21:58.747Z,0
2018-07-19T01:23:14.688Z,0
2018-07-19T01:24:30.590Z,0
2018-07-19T01:25:46.456Z,0
2018-07-19T01:27:02.406Z,0
2018-07-19T01:28:18.319Z,0
2018-07-19T01:29:34.241Z,0
2018-07-19T01:30:50.105Z,0
2018-07-19T01:32:06.114Z,0
2018-07-19T01:33:22.017Z,0
2018-07-19T01:34:37.929Z,0
2018-07-19T01:35:53.901Z,1
2018-07-19T01:37:09.789Z,0
2018-07-19T01:38:25.697Z,0
2018-07-19T01:39:41.602Z,0
2018-07-19T01:40:57.482Z,0
2018-07-19T01:42:13.374Z,0
2018-07-19T01:43:29.274Z,0
2018-07-19T01:44:45.332Z,0
2018-07-19T01:46:01.303Z,0
2018-07-19T01:47:17.285Z,0
2018-07-19T01:48:33.200Z,0
2018-07-19T01:49:49.157Z,0
2018-07-19T01:51:05.080Z,0
2018-07-19T01:52:20.975Z,0
2018-07-19T01:53:36.910Z,0
2018-07-19T01:54:52.792Z,0
2018-07-19T01:56:08.730Z,0
2018-07-19T01:57:24.641Z,0
2018-07-19T01:58:40.559Z,0
2018-07-19T01:59:56.520Z,0
2018-07-19T02:01:12.352Z,0
2018-07-19T02:02:28.348Z,0
2018-07-19T02:03:44.358Z,0
2018-07-19T02:05:00.290Z,0
2018-07-19T02:06:16.186Z,0
2018-07-19T02:07:32.113Z,0
2018-07-19T02:08:48.019Z,0
2018-07-19T02:10:03.902Z,0
2018-07-19T02:11:19.774Z,0
2018-07-19T02:12:35.639Z,0
2018-07-19T02:13:51.521Z,0
2018-07-19T02:15:07.369Z,0
2018-07-19T02:16:23.276Z,0
2018-07-19T02:17:39.210Z,0
2018-07-19T02:18:55.089Z,0
2018-07-19T02:20:11.027Z,0
2018-07-19T02:21:26.912Z,0
2018-07-19T02:22:42.824Z,0
2018-07-19T02:23:58.747Z,0
2018-07-19T02:25:14.596Z,0
2018-07-19T02:26:30.491Z,0
2018-07-19T02:27:46.393Z,0
2018-07-19T02:29:02.287Z,0
2018-07-19T02:30:18.310Z,0
2018-07-19T02:31:34.193Z,0
2018-07-19T02:32:50.118Z,0
2018-07-19T02:34:06.026Z,0
2018-07-19T02:35:21.925Z,0
2018-07-19T02:36:37.820Z,0
2018-07-19T02:37:53.746Z,0
2018-07-19T02:39:09.641Z,0
2018-07-19T02:40:25.513Z,0
2018-07-19T02:41:41.430Z,0
2018-07-19T02:42:57.406Z,0
2018-07-19T02:45:55.256Z,0
2018-07-19T02:47:11.131Z,0
2018-07-19T02:48:27.144Z,1
2018-07-19T02:49:43.074Z,0
2018-07-19T02:50:58.993Z,0
2018-07-19T02:52:14.891Z,0
2018-07-19T02:53:30.792Z,0
2018-07-19T02:54:46.679Z,0
2018-07-19T02:56:02.583Z,0
2018-07-19T02:57:18.459Z,1
2018-07-19T02:58:34.415Z,1
2018-07-19T02:59:50.340Z,1
2018-07-19T03:01:06.263Z,1
2018-07-19T03:02:22.153Z,1
2018-07-19T03:03:38.072Z,0
2018-07-19T03:04:54.059Z,1
2018-07-19T03:06:09.960Z,1
2018-07-19T03:07:25.822Z,1
2018-07-19T03:08:41.777Z,2
2018-07-19T03:09:57.692Z,1
2018-07-19T03:11:13.592Z,2
2018-07-19T03:12:29.575Z,2
2018-07-19T03:13:45.522Z,2
2018-07-19T03:15:01.428Z,3
2018-07-19T03:16:17.402Z,3
2018-07-19T03:17:33.333Z,3
2018-07-19T03:18:49.299Z,4
2018-07-19T03:20:05.250Z,6
2018-07-19T03:21:21.153Z,6
2018-07-19T03:22:37.074Z,8
2018-07-19T03:23:52.967Z,9
2018-07-19T03:25:08.943Z,12
2018-07-19T03:26:24.841Z,14
2018-07-19T03:27:40.730Z,17
2018-07-19T03:28:56.605Z,20
2018-07-19T03:30:12.498Z,24
2018-07-19T03:31:28.420Z,30
2018-07-19T03:32:44.401Z,36
2018-07-19T03:34:00.319Z,43
2018-07-19T03:35:16.227Z,51
2018-07-19T03:36:32.104Z,61
2018-07-19T03:37:48.007Z,72
2018-07-19T03:39:03.945Z,84
2018-07-19T03:40:19.928Z,97
2018-07-19T03:41:35.864Z,112
2018-07-19T03:42:51.767Z,126
2018-07-19T03:44:07.663Z,142
2018-07-19T03:45:23.584Z,158
2018-07-19T03:46:39.523Z,175
2018-07-19T03:47:55.464Z,194
2018-07-19T03:49:11.405Z,214
2018-07-19T03:50:27.360Z,234
2018-07-19T03:53:29.771Z,289
2018-07-19T03:56:27.862Z,347
2018-07-19T03:57:43.854Z,372
2018-07-19T03:58:59.736Z,399
2018-07-19T04:00:15.695Z,425
2018-07-19T04:01:31.596Z,453
2018-07-19T04:02:47.589Z,481
2018-07-19T04:04:03.451Z,508
2018-07-19T04:05:19.374Z,539
2018-07-19T04:06:35.292Z,571
2018-07-19T04:07:51.278Z,604
2018-07-19T04:09:07.177Z,638
2018-07-19T04:10:23.094Z,669
2018-07-19T04:11:38.972Z,700
2018-07-19T04:12:54.946Z,731
2018-07-19T04:14:10.850Z,763
2018-07-19T04:15:26.737Z,794
2018-07-19T04:16:42.660Z,823
2018-07-19T04:17:58.635Z,852
2018-07-19T04:19:14.534Z,882
2018-07-19T04:20:30.519Z,911
2018-07-19T04:21:46.406Z,942
2018-07-19T04:23:02.320Z,967
2018-07-19T04:24:18.289Z,994
2018-07-19T04:25:34.214Z,1023
2018-07-19T04:26:50.091Z,1052
2018-07-19T04:28:06.003Z,1080
2018-07-19T04:29:21.870Z,1107
2018-07-19T04:30:37.854Z,1135
2018-07-19T04:31:53.749Z,1166
2018-07-19T04:33:09.647Z,1195
2018-07-19T04:34:25.547Z,1222
2018-07-19T04:35:41.464Z,1247
2018-07-19T04:36:57.417Z,1272
2018-07-19T04:39:54.156Z,1325
2018-07-19T04:41:10.097Z,1346
2018-07-19T04:42:26.013Z,1370
2018-07-19T04:43:41.975Z,1395
2018-07-19T04:44:57.936Z,1420
2018-07-19T04:46:13.895Z,1444
2018-07-19T04:47:29.884Z,1468
2018-07-19T04:48:45.864Z,1494
2018-07-19T04:50:01.762Z,1519
2018-07-19T04:51:17.687Z,1545
2018-07-19T04:52:33.606Z,1567
2018-07-19T04:53:49.593Z,1588
2018-07-19T04:55:05.544Z,1612
2018-07-19T04:56:21.533Z,1635
2018-07-19T04:57:37.463Z,1654
2018-07-19T04:58:53.448Z,1678
2018-07-19T05:00:09.360Z,1700
2018-07-19T05:01:25.459Z,1722
2018-07-19T05:02:41.344Z,1742
2018-07-19T05:03:57.281Z,1779
2018-07-19T05:05:13.181Z,1618
2018-07-19T05:06:29.128Z,1793
2018-07-19T05:07:45.079Z,1810
2018-07-19T05:09:01.011Z,1828
2018-07-19T05:10:17.102Z,1844
2018-07-19T05:11:33.100Z,1861
2018-07-19T05:12:49.047Z,1891
2018-07-19T05:14:04.928Z,1892
2018-07-19T05:15:20.877Z,1907
2018-07-19T05:16:36.858Z,1921
2018-07-19T05:17:52.799Z,1938
2018-07-19T05:19:08.703Z,1952
2018-07-19T05:20:24.620Z,1971
2018-07-19T05:21:41.489Z,2001
2018-07-19T05:22:57.414Z,2000
2018-07-19T05:24:13.321Z,2015
2018-07-19T05:25:29.299Z,2051
2018-07-19T05:26:45.268Z,2041
2018-07-19T05:28:01.198Z,2062
2018-07-19T05:29:17.104Z,2079
2018-07-19T05:30:32.973Z,2088
2018-07-19T05:31:48.898Z,2101
2018-07-19T05:33:04.813Z,2115
2018-07-19T05:34:20.804Z,2121
2018-07-19T05:35:36.749Z,2148
2018-07-19T05:36:52.699Z,2153
2018-07-19T05:38:08.728Z,2171
2018-07-19T05:39:24.635Z,2268
2018-07-19T05:40:40.573Z,2192
2018-07-19T05:41:56.522Z,2223
2018-07-19T05:43:12.476Z,2222
2018-07-19T05:46:10.356Z,2252
2018-07-19T05:47:26.274Z,2259
2018-07-19T05:48:42.158Z,2271
2018-07-19T05:49:58.099Z,2286
2018-07-19T05:51:14.074Z,2304
2018-07-19T05:52:30.006Z,2311
2018-07-19T05:53:45.912Z,2316
2018-07-19T05:55:01.903Z,2331
2018-07-19T05:56:17.872Z,2343
2018-07-19T05:57:33.825Z,2348
2018-07-19T05:58:49.897Z,2374
2018-07-19T06:00:05.837Z,2411
2018-07-19T06:01:21.796Z,2391
2018-07-19T06:02:37.722Z,2414
2018-07-19T06:03:53.622Z,2415
2018-07-19T06:05:09.556Z,2439
2018-07-19T06:06:25.483Z,2443
2018-07-19T06:07:41.471Z,2479
2018-07-19T06:08:57.441Z,2463
2018-07-19T06:10:13.350Z,2480
2018-07-19T06:11:29.241Z,2493
2018-07-19T06:12:45.157Z,2540
2018-07-19T06:14:01.098Z,2530
2018-07-19T06:15:16.997Z,2522
2018-07-19T06:16:32.883Z,2528
2018-07-19T06:17:48.799Z,2566
2018-07-19T06:19:04.674Z,2563
2018-07-19T06:20:20.611Z,2569
2018-07-19T06:21:36.573Z,2595
2018-07-19T06:22:52.585Z,2653
2018-07-19T06:24:08.489Z,2623
2018-07-19T06:25:24.411Z,2687
2018-07-19T06:26:40.328Z,2643
2018-07-19T06:27:56.265Z,2655
2018-07-19T06:29:12.137Z,2674
2018-07-19T06:30:28.101Z,2697
2018-07-19T06:31:44.021Z,2708
2018-07-19T06:32:59.958Z,2744
2018-07-19T06:34:15.978Z,2747
2018-07-19T06:35:31.927Z,2678
2018-07-19T06:36:48.936Z,2727
2018-07-19T06:38:04.838Z,2741
2018-07-19T06:39:20.722Z,2752
2018-07-19T06:40:36.638Z,2770
2018-07-19T06:41:52.591Z,2790
2018-07-19T06:43:08.484Z,2801
2018-07-19T06:44:24.400Z,2817
2018-07-19T06:45:40.354Z,2832
2018-07-19T06:46:56.302Z,2853
2018-07-19T06:48:12.259Z,2871
2018-07-19T06:49:28.258Z,2886
2018-07-19T06:50:44.132Z,2892
2018-07-19T06:52:00.137Z,2907
2018-07-19T06:53:16.074Z,2924
2018-07-19T06:54:32.051Z,2926
2018-07-19T06:55:47.979Z,2951
2018-07-19T06:57:03.981Z,2974
2018-07-19T06:58:19.884Z,2993
2018-07-19T06:59:35.841Z,3014
2018-07-19T07:00:51.784Z,3022
2018-07-19T07:02:07.917Z,3050
2018-07-19T07:03:23.861Z,3071
2018-07-19T07:04:39.846Z,3097
2018-07-19T07:05:55.650Z,3106
2018-07-19T07:07:11.552Z,3184
2018-07-19T07:08:27.477Z,3221
2018-07-19T07:09:43.407Z,3240
2018-07-19T07:10:59.473Z,3283
2018-07-19T07:12:15.371Z,3318
2018-07-19T07:13:31.389Z,3355
2018-07-19T07:14:47.344Z,3438
2018-07-19T07:16:03.235Z,3457
2018-07-19T07:17:19.189Z,3512
2018-07-19T07:18:35.150Z,3587
2018-07-19T07:22:48.281Z,3663
2018-07-19T07:24:04.420Z,3678
2018-07-19T07:25:20.419Z,3709
2018-07-19T07:26:36.351Z,3734
2018-07-19T07:27:52.385Z,3753
2018-07-19T07:29:08.496Z,3778
2018-07-19T07:30:24.508Z,3787
2018-07-19T07:31:40.467Z,3814
2018-07-19T07:32:56.403Z,3871
2018-07-19T07:34:13.439Z,3881
2018-07-19T07:35:29.298Z,3906
2018-07-19T07:36:45.271Z,3945
2018-07-19T07:38:01.295Z,3970
2018-07-19T07:39:17.256Z,3995
2018-07-19T07:40:33.236Z,4015
2018-07-19T07:41:49.205Z,4036
2018-07-19T07:43:05.151Z,4035
2018-07-19T07:44:21.178Z,4053
2018-07-19T07:45:37.272Z,4079
2018-07-19T07:46:53.277Z,4113
2018-07-19T07:48:09.217Z,4115
2018-07-19T07:49:25.414Z,4157
2018-07-19T07:50:40.691Z,4157
2018-07-19T07:53:37.553Z,4165
2018-07-19T07:54:53.965Z,4248
2018-07-19T07:57:50.550Z,4285
2018-07-19T08:00:48.715Z,4309
2018-07-19T08:03:45.571Z,4351
2018-07-19T08:06:42.329Z,4411
2018-07-19T08:09:38.924Z,4447
2018-07-19T08:10:54.916Z,4489
2018-07-19T08:12:10.852Z,4491
2018-07-19T08:13:26.812Z,4506
2018-07-19T08:14:42.716Z,4532
2018-07-19T08:15:58.807Z,4550
2018-07-19T08:17:14.910Z,4549
2018-07-19T08:18:30.930Z,4618
2018-07-19T08:19:46.869Z,4635
2018-07-19T08:21:02.776Z,4638
2018-07-19T08:22:18.837Z,4655
2018-07-19T08:23:35.025Z,4670
2018-07-19T08:24:51.611Z,4660
2018-07-19T08:27:50.470Z,4704
2018-07-19T08:32:32.812Z,4779
2018-07-19T08:33:49.054Z,4774
2018-07-19T08:35:05.035Z,4811
2018-07-19T08:36:21.061Z,4806
2018-07-19T08:37:37.049Z,4822
2018-07-19T08:38:53.134Z,4848
2018-07-19T08:40:09.103Z,4821
2018-07-19T08:41:25.177Z,4862
2018-07-19T08:42:41.175Z,4872
2018-07-19T08:43:57.271Z,4883
2018-07-19T08:45:13.243Z,4875
2018-07-19T08:46:29.204Z,4899
2018-07-19T08:47:45.374Z,4931
2018-07-19T08:49:02.357Z,4941
2018-07-19T08:53:40.240Z,5020
2018-07-19T08:54:56.323Z,5034
2018-07-19T08:59:09.879Z,5116
2018-07-19T09:00:26.063Z,5145
2018-07-19T09:01:42.086Z,5198
2018-07-19T09:02:58.008Z,5200
2018-07-19T09:04:14.044Z,5223
2018-07-19T09:05:30.002Z,5212
2018-07-19T09:06:45.953Z,5194
2018-07-19T09:08:02.057Z,5264
2018-07-19T09:09:17.984Z,5248
2018-07-19T09:10:33.928Z,5232
2018-07-19T09:11:49.918Z,5284
2018-07-19T09:13:05.832Z,5301
2018-07-19T09:14:21.758Z,5323
2018-07-19T09:15:37.888Z,5328
2018-07-19T09:16:53.816Z,5366
2018-07-19T09:18:09.729Z,5394
2018-07-19T09:19:25.705Z,5414
2018-07-19T09:20:41.520Z,5427
2018-07-19T09:21:57.447Z,5472
2018-07-19T09:23:13.604Z,5435
2018-07-19T09:24:30.522Z,5446
2018-07-19T09:25:46.455Z,5486
2018-07-19T09:27:02.391Z,5499
2018-07-19T09:28:18.374Z,5518
2018-07-19T09:29:34.332Z,5559
2018-07-19T09:30:50.245Z,5579
2018-07-19T09:32:06.201Z,5622
2018-07-19T09:33:22.228Z,5650
2018-07-19T09:34:38.235Z,5650
2018-07-19T09:35:54.140Z,5725
2018-07-19T09:37:10.109Z,5721
2018-07-19T09:38:26.138Z,5759
2018-07-19T09:39:41.991Z,5757
2018-07-19T09:40:57.962Z,5763
2018-07-19T09:42:14.033Z,5787
2018-07-19T09:43:30.097Z,5791
2018-07-19T09:44:45.984Z,5816
2018-07-19T09:46:02.112Z,5834
2018-07-19T09:47:18.136Z,5822
2018-07-19T09:48:34.126Z,5859
2018-07-19T09:49:50.047Z,5902
2018-07-19T09:51:05.981Z,5877
2018-07-19T09:52:21.953Z,5887
2018-07-19T09:53:37.847Z,5916
2018-07-19T09:54:53.777Z,5924
2018-07-19T09:56:09.739Z,5965
2018-07-19T09:57:25.771Z,5978
2018-07-19T09:58:41.747Z,6046
2018-07-19T09:59:57.711Z,6001
2018-07-19T10:01:13.729Z,6035
2018-07-19T10:02:29.730Z,6032
2018-07-19T10:03:45.621Z,6050
2018-07-19T10:05:01.584Z,5991
2018-07-19T10:06:17.481Z,6019
2018-07-19T10:07:33.434Z,6011
2018-07-19T10:08:49.353Z,6050
2018-07-19T10:10:05.331Z,6036
2018-07-19T10:11:21.160Z,6070
2018-07-19T10:12:37.079Z,6098
2018-07-19T10:13:52.972Z,6105
2018-07-19T10:15:08.874Z,6109
2018-07-19T10:16:24.797Z,6120
2018-07-19T10:17:40.728Z,6133
2018-07-19T10:18:56.595Z,6147
2018-07-19T10:20:12.520Z,6140
2018-07-19T10:21:28.437Z,6134
2018-07-19T10:22:44.368Z,6107
2018-07-19T10:24:00.331Z,6120
2018-07-19T10:25:16.273Z,6142
2018-07-19T10:26:32.242Z,6141
2018-07-19T10:27:48.208Z,6186
2018-07-19T10:29:04.163Z,6200
2018-07-19T10:30:20.078Z,6226
2018-07-19T10:31:36.067Z,6222
2018-07-19T10:32:52.004Z,6211
2018-07-19T10:34:07.940Z,6286
2018-07-19T10:35:23.832Z,6326
2018-07-19T10:36:39.747Z,6328
2018-07-19T10:37:55.630Z,6353
2018-07-19T10:39:12.495Z,6325
2018-07-19T10:40:28.397Z,6357
2018-07-19T10:41:44.286Z,6342
2018-07-19T10:43:00.297Z,6361
2018-07-19T10:44:16.213Z,6369
2018-07-19T10:45:32.142Z,6349
2018-07-19T10:46:48.011Z,6353
2018-07-19T10:48:03.937Z,6375
2018-07-19T10:49:19.829Z,6460
2018-07-19T10:50:35.719Z,6459
2018-07-19T10:51:51.673Z,6380
2018-07-19T10:53:07.594Z,6367
2018-07-19T10:54:23.514Z,6434
2018-07-19T10:55:39.576Z,6515
2018-07-19T10:56:55.482Z,6430
2018-07-19T10:58:11.463Z,6435
2018-07-19T10:59:27.484Z,6448
2018-07-19T11:00:43.677Z,6440
2018-07-19T11:01:59.606Z,6485
2018-07-19T11:03:15.523Z,6455
2018-07-19T11:04:31.414Z,6488
2018-07-19T11:05:47.368Z,6503
2018-07-19T11:07:03.336Z,6488
2018-07-19T11:08:19.223Z,6477
2018-07-19T11:09:35.176Z,6505
2018-07-19T11:10:51.071Z,6499
2018-07-19T11:12:07.061Z,6470
2018-07-19T11:13:23.043Z,6489
2018-07-19T11:14:38.986Z,6497
2018-07-19T11:15:54.942Z,6511
2018-07-19T11:17:10.845Z,6525
2018-07-19T11:18:26.740Z,6544
2018-07-19T11:19:42.673Z,6535
2018-07-19T11:20:58.560Z,6558
2018-07-19T11:22:14.506Z,6569
2018-07-19T11:23:30.468Z,6572
2018-07-19T11:24:46.413Z,6618
2018-07-19T11:27:42.908Z,6619
2018-07-19T11:28:58.904Z,6619
2018-07-19T11:30:14.870Z,6689
2018-07-19T11:31:30.816Z,6714
2018-07-19T11:32:46.728Z,6724
2018-07-19T11:34:02.664Z,6769
2018-07-19T11:35:18.655Z,6743
2018-07-19T11:36:34.519Z,6788
2018-07-19T11:37:50.464Z,6776
2018-07-19T11:39:06.362Z,6784
2018-07-19T11:40:22.293Z,6824
2018-07-19T11:41:38.287Z,6893
2018-07-19T11:42:54.218Z,7019
2018-07-19T11:44:10.176Z,7116
2018-07-19T11:45:26.080Z,7253
2018-07-19T11:46:41.991Z,7245
2018-07-19T11:47:57.925Z,7283
2018-07-19T11:49:13.841Z,7310
2018-07-19T11:50:29.714Z,7350
2018-07-19T11:51:45.651Z,7318
2018-07-19T11:53:01.568Z,7311
2018-07-19T11:54:17.500Z,7295
2018-07-19T11:55:33.414Z,7313
2018-07-19T11:56:49.330Z,7288
2018-07-19T11:58:05.282Z,7269
2018-07-19T11:59:21.198Z,7273
2018-07-19T12:00:37.106Z,7265
2018-07-19T12:01:53.083Z,7218
2018-07-19T12:03:08.961Z,7249
2018-07-19T12:04:24.890Z,7324
2018-07-19T12:05:40.885Z,7309
2018-07-19T12:06:56.792Z,7232
2018-07-19T12:08:12.707Z,7322
2018-07-19T12:09:28.622Z,7313
2018-07-19T12:10:44.490Z,7340
2018-07-19T12:12:00.414Z,7333
2018-07-19T12:13:16.321Z,7363
2018-07-19T12:14:32.247Z,7416
2018-07-19T12:15:48.176Z,7393
2018-07-19T12:17:04.166Z,7353
2018-07-19T12:18:20.130Z,7345
2018-07-19T12:19:36.039Z,7300
2018-07-19T12:20:52.072Z,7276
2018-07-19T12:22:08.088Z,7334
2018-07-19T12:23:24.065Z,7323
2018-07-19T12:24:39.993Z,7320
2018-07-19T12:25:55.965Z,7353
2018-07-19T12:27:11.967Z,7349
2018-07-19T12:28:27.883Z,7357
2018-07-19T12:29:43.794Z,7360
2018-07-19T12:30:59.729Z,7375
2018-07-19T12:32:15.675Z,7331
2018-07-19T12:33:31.570Z,7318
2018-07-19T12:34:47.544Z,7347
2018-07-19T12:36:03.498Z,7308
2018-07-19T12:37:19.428Z,7264
2018-07-19T12:38:35.381Z,7291
2018-07-19T12:39:51.302Z,7271
2018-07-19T12:41:07.303Z,7259
2018-07-19T12:42:23.235Z,7243
2018-07-19T12:43:39.155Z,7228
2018-07-19T12:44:55.149Z,7277
2018-07-19T12:46:11.001Z,7236
2018-07-19T12:47:26.961Z,7205
2018-07-19T12:48:42.887Z,7181
2018-07-19T12:49:58.778Z,7126
2018-07-19T12:51:14.754Z,7154
2018-07-19T12:52:30.660Z,7134
2018-07-19T12:53:46.596Z,7094
2018-07-19T12:55:02.545Z,7089
2018-07-19T12:56:18.457Z,7066
2018-07-19T12:57:34.384Z,7086
2018-07-19T12:58:50.308Z,7107
2018-07-19T13:00:06.230Z,7123
2018-07-19T13:01:22.187Z,7136
2018-07-19T13:02:38.154Z,7100
2018-07-19T13:03:54.074Z,7127
2018-07-19T13:05:09.972Z,7116
2018-07-19T13:06:25.917Z,7115
2018-07-19T13:07:41.829Z,7082
2018-07-19T13:08:57.700Z,7163
2018-07-19T13:10:13.587Z,7157
2018-07-19T13:11:29.512Z,7138
2018-07-19T13:12:45.412Z,7180
2018-07-19T13:14:01.324Z,7210
2018-07-19T13:15:17.399Z,7133
2018-07-19T13:16:33.343Z,7163
2018-07-19T13:17:49.363Z,7225
2018-07-19T13:19:05.204Z,7233
2018-07-19T13:20:21.172Z,7199
2018-07-19T13:21:37.181Z,7241
2018-07-19T13:22:53.062Z,7227
2018-07-19T13:24:09.056Z,7198
2018-07-19T13:25:24.898Z,7169
2018-07-19T13:26:40.873Z,7235
2018-07-19T13:27:56.783Z,7246
2018-07-19T13:29:12.825Z,7280
2018-07-19T13:30:28.696Z,7282
2018-07-19T13:31:44.623Z,7245
2018-07-19T13:33:00.532Z,7242
2018-07-19T13:34:16.473Z,7300
2018-07-19T13:35:32.422Z,5401
2018-07-19T13:36:48.463Z,7238
2018-07-19T13:38:04.307Z,7226
2018-07-19T13:39:20.257Z,7224
2018-07-19T13:40:36.170Z,7233
2018-07-19T13:41:52.078Z,7225
2018-07-19T13:43:07.991Z,7256
2018-07-19T13:44:23.998Z,7252
2018-07-19T13:45:39.947Z,7232
2018-07-19T13:46:55.844Z,7212
2018-07-19T13:48:11.807Z,7219
2018-07-19T13:49:27.709Z,7166
2018-07-19T13:50:43.639Z,7177
2018-07-19T13:51:59.616Z,7208
2018-07-19T13:53:15.570Z,7211
2018-07-19T13:54:31.454Z,7230
2018-07-19T13:55:47.363Z,7239
2018-07-19T13:57:03.250Z,7227
2018-07-19T13:58:19.210Z,7221
2018-07-19T13:59:35.104Z,7193
2018-07-19T14:00:51.024Z,7178
2018-07-19T14:02:06.923Z,7180
2018-07-19T14:03:22.851Z,7183
2018-07-19T14:04:38.783Z,7185
2018-07-19T14:05:54.755Z,7166
2018-07-19T14:07:10.723Z,7170
2018-07-19T14:08:26.749Z,7102
2018-07-19T14:09:42.912Z,7100
2018-07-19T14:10:58.932Z,7159
2018-07-19T14:12:14.853Z,7149
2018-07-19T14:13:30.826Z,7134
2018-07-19T14:14:46.802Z,7160
2018-07-19T14:16:02.695Z,7117
2018-07-19T14:17:18.646Z,7124
2018-07-19T14:18:34.570Z,7149
2018-07-19T14:19:50.534Z,7170
2018-07-19T14:21:06.447Z,7133
2018-07-19T14:22:22.365Z,7145
2018-07-19T14:23:38.396Z,7148
2018-07-19T14:24:54.329Z,7186
2018-07-19T14:26:10.250Z,7184
2018-07-19T14:27:26.148Z,7219
2018-07-19T14:28:42.226Z,7214
2018-07-19T14:29:58.186Z,7227
2018-07-19T14:31:14.161Z,7247
2018-07-19T14:32:30.079Z,7249
2018-07-19T14:33:46.052Z,7258
2018-07-19T14:35:01.994Z,7256
2018-07-19T14:36:18.045Z,7199
2018-07-19T14:37:33.958Z,7184
2018-07-19T14:38:49.876Z,7193
2018-07-19T14:40:05.821Z,7222
2018-07-19T14:41:21.766Z,7194
2018-07-19T14:42:37.635Z,7162
2018-07-19T14:43:53.566Z,7160
2018-07-19T14:45:09.529Z,7164
2018-07-19T14:46:26.075Z,7163
2018-07-19T14:47:42.414Z,7149
2018-07-19T14:48:58.518Z,7147
2018-07-19T14:50:14.739Z,7141
2018-07-19T14:51:31.057Z,7139
2018-07-19T14:52:46.960Z,7149
2018-07-19T14:54:02.863Z,7177
2018-07-19T14:55:18.764Z,7162
2018-07-19T14:56:34.707Z,7180
2018-07-19T14:57:50.728Z,7188
2018-07-19T14:59:06.658Z,7172
2018-07-19T15:00:22.587Z,7155
2018-07-19T15:01:38.526Z,7083
2018-07-19T15:02:54.496Z,7094
2018-07-19T15:04:10.420Z,7073
2018-07-19T15:05:26.312Z,7057
2018-07-19T15:06:42.213Z,7016
2018-07-19T15:07:58.115Z,7007
2018-07-19T15:09:13.990Z,6994
2018-07-19T15:10:29.945Z,6966
2018-07-19T15:11:45.887Z,6938
2018-07-19T15:13:01.748Z,6940
2018-07-19T15:14:17.665Z,6914
2018-07-19T15:15:33.584Z,6905
2018-07-19T15:16:49.525Z,6852
2018-07-19T15:18:05.500Z,6850
2018-07-19T15:19:21.411Z,6814
2018-07-19T15:20:37.294Z,6791
2018-07-19T15:21:53.264Z,6770
2018-07-19T15:23:09.280Z,6730
2018-07-19T15:24:25.355Z,6713
2018-07-19T15:25:41.611Z,6687
2018-07-19T15:26:57.569Z,6677
2018-07-19T15:28:13.533Z,6651
2018-07-19T15:29:29.603Z,6616
2018-07-19T15:30:45.627Z,6592
2018-07-19T15:32:01.615Z,6570
2018-07-19T15:33:17.562Z,6540
2018-07-19T15:34:33.566Z,6542
2018-07-19T15:35:49.561Z,6513
2018-07-19T15:37:05.543Z,6489
2018-07-19T15:38:21.485Z,6485
2018-07-19T15:39:37.563Z,6454
2018-07-19T15:40:53.438Z,6441
2018-07-19T15:42:09.460Z,6400
2018-07-19T15:43:25.497Z,6366
2018-07-19T15:44:41.582Z,6372
2018-07-19T15:45:57.576Z,6362
2018-07-19T15:47:13.717Z,6326
2018-07-19T15:48:29.863Z,6315
2018-07-19T15:51:26.440Z,6363
2018-07-19T15:52:42.402Z,6361
2018-07-19T15:53:58.397Z,6328
2018-07-19T15:55:14.420Z,6282
2018-07-19T15:56:30.552Z,6247
2018-07-19T15:57:46.531Z,6210
2018-07-19T15:59:02.501Z,6155
2018-07-19T16:00:18.676Z,6136
2018-07-19T16:01:34.639Z,6090
2018-07-19T16:04:31.523Z,6008
2018-07-19T16:05:47.614Z,5997
2018-07-19T16:07:03.583Z,5993
2018-07-19T16:08:19.670Z,5965
2018-07-19T16:09:35.648Z,5950
2018-07-19T16:10:51.627Z,5943
2018-07-19T16:12:07.641Z,5929
2018-07-19T16:13:23.670Z,5888
2018-07-19T16:14:39.674Z,5829
2018-07-19T16:15:55.653Z,5810
2018-07-19T16:17:11.644Z,5786
2018-07-19T16:18:27.831Z,5775
2018-07-19T16:19:43.891Z,5757
2018-07-19T16:20:59.938Z,5715
2018-07-19T16:22:15.980Z,5671
2018-07-19T16:23:31.946Z,5646
2018-07-19T16:24:49.052Z,5608
2018-07-19T16:26:05.098Z,5593
2018-07-19T16:27:21.831Z,5521
2018-07-19T16:28:37.823Z,5477
2018-07-19T16:29:53.766Z,5443
2018-07-19T16:31:09.864Z,5405
2018-07-19T16:32:26.747Z,5358
2018-07-19T16:33:42.637Z,5305
2018-07-19T16:34:58.624Z,5269
2018-07-19T16:36:14.677Z,5222
2018-07-19T16:37:30.670Z,5183
2018-07-19T16:38:46.699Z,5163
2018-07-19T16:40:02.611Z,5120
2018-07-19T16:41:19.550Z,5104
2018-07-19T16:42:35.583Z,5073
2018-07-19T16:43:51.536Z,5031
2018-07-19T16:45:07.481Z,4971
2018-07-19T16:46:23.454Z,4931
2018-07-19T16:47:39.389Z,4860
2018-07-19T16:48:55.302Z,4821
2018-07-19T16:50:11.238Z,4784
2018-07-19T16:51:27.136Z,4749
2018-07-19T16:52:43.071Z,4671
2018-07-19T16:53:59.035Z,4676
2018-07-19T16:55:14.963Z,4661
2018-07-19T16:56:30.997Z,4568
2018-07-19T16:57:46.980Z,4514
2018-07-19T16:59:03.005Z,4445
2018-07-19T17:00:19.105Z,4315
2018-07-19T17:01:35.051Z,4270
2018-07-19T17:02:50.971Z,4163
2018-07-19T17:04:06.917Z,3931
2018-07-19T17:05:22.862Z,3938
2018-07-19T17:06:38.763Z,3903
2018-07-19T17:07:54.689Z,3861
2018-07-19T17:09:10.658Z,3693
2018-07-19T17:10:26.584Z,3735
2018-07-19T17:11:42.474Z,3808
2018-07-19T17:12:58.456Z,3823
2018-07-19T17:14:14.463Z,3860
2018-07-19T17:15:30.402Z,3895
2018-07-19T17:16:46.392Z,3858
2018-07-19T17:18:02.312Z,3743
2018-07-19T17:19:18.314Z,3689
2018-07-19T17:20:34.266Z,3604
2018-07-19T17:21:50.225Z,3501
2018-07-19T17:23:06.149Z,3409
2018-07-19T17:24:22.189Z,3357
2018-07-19T17:25:38.110Z,3312
2018-07-19T17:26:54.098Z,3223
2018-07-19T17:28:10.173Z,3060
2018-07-19T17:29:26.182Z,2937
2018-07-19T17:30:42.205Z,2874
2018-07-19T17:31:58.114Z,2785
2018-07-19T17:33:14.085Z,2815
2018-07-19T17:34:30.103Z,2842
2018-07-19T17:35:46.284Z,2830
2018-07-19T17:37:02.232Z,2835
2018-07-19T17:38:18.187Z,2839
2018-07-19T17:39:34.187Z,2846
2018-07-19T17:40:50.117Z,2849
2018-07-19T17:42:06.226Z,2799
2018-07-19T17:43:22.418Z,2775
2018-07-19T17:44:38.825Z,2699
2018-07-19T17:48:52.012Z,2369
2018-07-19T17:53:04.823Z,2139
2018-07-19T17:54:20.793Z,2083
2018-07-19T17:55:36.706Z,2046
2018-07-19T17:56:52.657Z,2014
2018-07-19T17:58:08.616Z,1975